sensor_id;sensor_type;location;lat;lon;timestamp;pressure;altitude;pressure_sealevel;temperature;humidity
72414;BME280;60995;52.154;4.498;2023-05-19T00:00:23;102806.81;;;11.20;68.32
72414;BME280;60995;52.154;4.498;2023-05-19T00:02:39;102798.69;;;11.34;68.25
72414;BME280;60995;52.154;4.498;2023-05-19T00:04:56;102795.41;;;11.29;68.12
72414;BME280;60995;52.154;4.498;2023-05-19T00:07:17;102798.69;;;11.20;68.22
72414;BME280;60995;52.154;4.498;2023-05-19T00:09:35;102796.72;;;11.22;68.60
72414;BME280;60995;52.154;4.498;2023-05-19T00:11:52;102780.06;;;11.28;68.19
72414;BME280;60995;52.154;4.498;2023-05-19T00:14:09;102784.50;;;11.15;68.39
72414;BME280;60995;52.154;4.498;2023-05-19T00:16:27;102786.53;;;11.25;68.49
72414;BME280;60995;52.154;4.498;2023-05-19T00:18:44;102790.19;;;11.10;68.94
72414;BME280;60995;52.154;4.498;2023-05-19T00:21:02;102785.03;;;11.05;68.70
72414;BME280;60995;52.154;4.498;2023-05-19T00:23:18;102785.47;;;11.14;68.71
72414;BME280;60995;52.154;4.498;2023-05-19T00:25:34;102788.31;;;10.96;69.10
72414;BME280;60995;52.154;4.498;2023-05-19T00:27:51;102784.84;;;11.08;69.03
72414;BME280;60995;52.154;4.498;2023-05-19T00:30:07;102792.81;;;11.12;68.88
72414;BME280;60995;52.154;4.498;2023-05-19T00:32:24;102789.97;;;10.99;69.30
72414;BME280;60995;52.154;4.498;2023-05-19T00:34:40;102792.59;;;11.00;69.19
72414;BME280;60995;52.154;4.498;2023-05-19T00:36:57;102788.81;;;11.03;69.56
72414;BME280;60995;52.154;4.498;2023-05-19T00:39:13;102796.09;;;11.02;69.28
72414;BME280;60995;52.154;4.498;2023-05-19T00:41:30;102794.72;;;10.95;69.12
72414;BME280;60995;52.154;4.498;2023-05-19T00:43:46;102789.47;;;10.92;69.10
72414;BME280;60995;52.154;4.498;2023-05-19T00:46:02;102803.72;;;10.96;69.54
72414;BME280;60995;52.154;4.498;2023-05-19T00:48:19;102790.63;;;10.88;69.69
72414;BME280;60995;52.154;4.498;2023-05-19T00:50:35;102793.84;;;10.95;69.25
72414;BME280;60995;52.154;4.498;2023-05-19T00:52:52;102797.19;;;10.84;69.79
72414;BME280;60995;52.154;4.498;2023-05-19T00:55:10;102794.53;;;10.98;70.00
72414;BME280;60995;52.154;4.498;2023-05-19T00:57:27;102790.25;;;10.94;69.60
72414;BME280;60995;52.154;4.498;2023-05-19T00:59:43;102786.50;;;10.81;69.77
72414;BME280;60995;52.154;4.498;2023-05-19T01:02:00;102784.59;;;10.83;69.97
72414;BME280;60995;52.154;4.498;2023-05-19T01:04:21;102785.72;;;10.79;69.91
72414;BME280;60995;52.154;4.498;2023-05-19T01:06:37;102784.59;;;10.83;70.34
72414;BME280;60995;52.154;4.498;2023-05-19T01:08:53;102789.59;;;10.74;70.63
72414;BME280;60995;52.154;4.498;2023-05-19T01:11:12;102795.47;;;10.67;70.62
72414;BME280;60995;52.154;4.498;2023-05-19T01:13:29;102774.56;;;10.53;70.78
72414;BME280;60995;52.154;4.498;2023-05-19T01:15:58;102774.81;;;10.64;70.68
72414;BME280;60995;52.154;4.498;2023-05-19T01:18:22;102780.59;;;10.58;71.09
72414;BME280;60995;52.154;4.498;2023-05-19T01:20:50;102778.69;;;10.60;71.39
72414;BME280;60995;52.154;4.498;2023-05-19T01:23:23;102776.94;;;10.59;71.12
72414;BME280;60995;52.154;4.498;2023-05-19T01:31:48;102770.78;;;10.55;71.09
72414;BME280;60995;52.154;4.498;2023-05-19T01:34:05;102766.63;;;10.50;70.75
72414;BME280;60995;52.154;4.498;2023-05-19T01:36:24;102765.28;;;10.57;71.10
72414;BME280;60995;52.154;4.498;2023-05-19T01:38:42;102769.47;;;10.47;71.24
72414;BME280;60995;52.154;4.498;2023-05-19T01:40:59;102770.81;;;10.39;71.76
72414;BME280;60995;52.154;4.498;2023-05-19T01:43:22;102776.06;;;10.42;71.80
72414;BME280;60995;52.154;4.498;2023-05-19T01:45:40;102768.19;;;10.54;71.62
72414;BME280;60995;52.154;4.498;2023-05-19T01:47:59;102767.81;;;10.44;71.39
72414;BME280;60995;52.154;4.498;2023-05-19T01:50:17;102769.25;;;10.35;71.65
72414;BME280;60995;52.154;4.498;2023-05-19T01:52:33;102762.75;;;10.54;71.69
72414;BME280;60995;52.154;4.498;2023-05-19T01:54:49;102760.84;;;10.40;71.53
72414;BME280;60995;52.154;4.498;2023-05-19T01:57:09;102765.91;;;10.30;71.65
72414;BME280;60995;52.154;4.498;2023-05-19T01:59:53;102757.34;;;10.38;71.71
72414;BME280;60995;52.154;4.498;2023-05-19T02:05:39;102760.13;;;10.36;71.98
72414;BME280;60995;52.154;4.498;2023-05-19T02:08:26;102758.22;;;10.38;72.09
72414;BME280;60995;52.154;4.498;2023-05-19T02:10:50;102756.38;;;10.39;72.13
72414;BME280;60995;52.154;4.498;2023-05-19T02:13:15;102758.53;;;10.32;72.08
72414;BME280;60995;52.154;4.498;2023-05-19T02:15:39;102756.97;;;10.28;71.95
72414;BME280;60995;52.154;4.498;2023-05-19T02:18:00;102756.63;;;10.18;72.52
72414;BME280;60995;52.154;4.498;2023-05-19T02:20:19;102752.88;;;10.21;72.47
72414;BME280;60995;52.154;4.498;2023-05-19T02:22:36;102752.88;;;10.21;72.68
72414;BME280;60995;52.154;4.498;2023-05-19T02:24:53;102754.53;;;10.23;72.80
72414;BME280;60995;52.154;4.498;2023-05-19T02:27:11;102751.22;;;10.18;72.46
72414;BME280;60995;52.154;4.498;2023-05-19T02:29:27;102747.50;;;10.03;73.10
72414;BME280;60995;52.154;4.498;2023-05-19T02:31:43;102745.59;;;10.05;73.20
72414;BME280;60995;52.154;4.498;2023-05-19T02:34:00;102751.38;;;9.99;73.22
72414;BME280;60995;52.154;4.498;2023-05-19T02:36:16;102748.31;;;10.05;73.31
72414;BME280;60995;52.154;4.498;2023-05-19T02:38:33;102751.03;;;10.05;73.07
72414;BME280;60995;52.154;4.498;2023-05-19T02:40:50;102745.00;;;10.00;73.24
72414;BME280;60995;52.154;4.498;2023-05-19T02:43:10;102747.31;;;9.90;73.61
72414;BME280;60995;52.154;4.498;2023-05-19T02:45:26;102742.19;;;10.02;73.47
72414;BME280;60995;52.154;4.498;2023-05-19T02:47:43;102749.94;;;9.92;73.97
72414;BME280;60995;52.154;4.498;2023-05-19T02:49:59;102747.34;;;10.06;73.68
72414;BME280;60995;52.154;4.498;2023-05-19T02:52:15;102740.94;;;10.07;73.42
72414;BME280;60995;52.154;4.498;2023-05-19T02:54:33;102747.00;;;9.97;73.45
72414;BME280;60995;52.154;4.498;2023-05-19T02:56:49;102734.84;;;10.04;73.75
72414;BME280;60995;52.154;4.498;2023-05-19T02:59:06;102728.09;;;9.95;73.49
72414;BME280;60995;52.154;4.498;2023-05-19T03:01:22;102735.09;;;9.99;73.80
72414;BME280;60995;52.154;4.498;2023-05-19T03:03:38;102726.53;;;10.07;74.04
72414;BME280;60995;52.154;4.498;2023-05-19T03:05:54;102731.59;;;9.97;74.29
72414;BME280;60995;52.154;4.498;2023-05-19T03:08:11;102728.72;;;10.00;74.38
72414;BME280;60995;52.154;4.498;2023-05-19T03:10:27;102728.88;;;9.97;74.76
72414;BME280;60995;52.154;4.498;2023-05-19T03:12:43;102722.50;;;9.98;74.60
72414;BME280;60995;52.154;4.498;2023-05-19T03:15:00;102730.91;;;9.93;74.83
72414;BME280;60995;52.154;4.498;2023-05-19T03:17:16;102728.97;;;9.96;74.75
72414;BME280;60995;52.154;4.498;2023-05-19T03:19:32;102728.44;;;10.05;74.70
72414;BME280;60995;52.154;4.498;2023-05-19T03:21:48;102727.38;;;10.07;74.46
72414;BME280;60995;52.154;4.498;2023-05-19T03:24:05;102731.94;;;10.07;74.65
72414;BME280;60995;52.154;4.498;2023-05-19T03:26:21;102726.78;;;10.02;74.65
72414;BME280;60995;52.154;4.498;2023-05-19T03:28:39;102729.91;;;9.79;74.53
72414;BME280;60995;52.154;4.498;2023-05-19T03:30:55;102727.22;;;9.79;75.19
72414;BME280;60995;52.154;4.498;2023-05-19T03:33:11;102714.59;;;9.77;75.18
72414;BME280;60995;52.154;4.498;2023-05-19T03:35:28;102725.28;;;9.81;75.38
72414;BME280;60995;52.154;4.498;2023-05-19T03:37:44;102727.22;;;9.79;75.17
72414;BME280;60995;52.154;4.498;2023-05-19T03:40:00;102720.13;;;9.92;75.48
72414;BME280;60995;52.154;4.498;2023-05-19T03:42:17;102723.19;;;9.86;75.35
72414;BME280;60995;52.154;4.498;2023-05-19T03:44:33;102720.91;;;9.94;75.48
72414;BME280;60995;52.154;4.498;2023-05-19T03:46:49;102720.72;;;9.97;74.99
72414;BME280;60995;52.154;4.498;2023-05-19T03:49:05;102723.38;;;9.99;75.05
72414;BME280;60995;52.154;4.498;2023-05-19T03:51:22;102724.25;;;9.99;75.26
72414;BME280;60995;52.154;4.498;2023-05-19T03:53:38;102718.72;;;10.01;75.46
72414;BME280;60995;52.154;4.498;2023-05-19T03:55:55;102727.75;;;10.01;74.98
72414;BME280;60995;52.154;4.498;2023-05-19T03:58:12;102723.19;;;10.02;74.81
72414;BME280;60995;52.154;4.498;2023-05-19T04:00:29;102728.81;;;10.15;74.94
72414;BME280;60995;52.154;4.498;2023-05-19T04:02:45;102725.81;;;10.19;74.58
72414;BME280;60995;52.154;4.498;2023-05-19T04:05:02;102728.25;;;10.24;74.33
72414;BME280;60995;52.154;4.498;2023-05-19T04:07:22;102731.28;;;10.35;74.24
72414;BME280;60995;52.154;4.498;2023-05-19T04:09:38;102730.22;;;10.38;74.13
72414;BME280;60995;52.154;4.498;2023-05-19T04:11:54;102736.59;;;10.37;73.90
72414;BME280;60995;52.154;4.498;2023-05-19T04:14:11;102733.16;;;10.33;74.08
72414;BME280;60995;52.154;4.498;2023-05-19T04:16:27;102729.66;;;10.31;74.40
72414;BME280;60995;52.154;4.498;2023-05-19T04:18:43;102740.19;;;10.53;73.98
72414;BME280;60995;52.154;4.498;2023-05-19T04:21:01;102732.53;;;10.60;73.72
72414;BME280;60995;52.154;4.498;2023-05-19T04:23:17;102737.69;;;10.65;73.64
72414;BME280;60995;52.154;4.498;2023-05-19T04:25:33;102735.41;;;10.57;73.53
72414;BME280;60995;52.154;4.498;2023-05-19T04:27:51;102740.72;;;10.74;73.09
72414;BME280;60995;52.154;4.498;2023-05-19T04:30:08;102731.63;;;10.75;73.03
72414;BME280;60995;52.154;4.498;2023-05-19T04:32:24;102735.03;;;10.93;72.40
72414;BME280;60995;52.154;4.498;2023-05-19T04:34:40;102730.75;;;10.89;72.57
72414;BME280;60995;52.154;4.498;2023-05-19T04:37:00;102727.78;;;10.94;72.19
72414;BME280;60995;52.154;4.498;2023-05-19T04:39:17;102725.25;;;11.05;72.39
72414;BME280;60995;52.154;4.498;2023-05-19T04:41:33;102731.38;;;11.09;72.23
72414;BME280;60995;52.154;4.498;2023-05-19T04:43:50;102728.56;;;10.96;72.24
72414;BME280;60995;52.154;4.498;2023-05-19T04:46:07;102727.41;;;11.00;72.61
72414;BME280;60995;52.154;4.498;2023-05-19T04:48:25;102731.88;;;11.16;72.22
72414;BME280;60995;52.154;4.498;2023-05-19T04:50:42;102733.63;;;11.17;72.12
72414;BME280;60995;52.154;4.498;2023-05-19T04:52:58;102736.31;;;11.47;71.88
72414;BME280;60995;52.154;4.498;2023-05-19T04:55:14;102736.38;;;11.60;70.75
72414;BME280;60995;52.154;4.498;2023-05-19T04:57:32;102728.03;;;11.78;70.48
72414;BME280;60995;52.154;4.498;2023-05-19T04:59:48;102727.66;;;11.69;70.27
72414;BME280;60995;52.154;4.498;2023-05-19T05:02:04;102731.50;;;11.80;69.93
72414;BME280;60995;52.154;4.498;2023-05-19T05:04:22;102730.34;;;11.98;69.54
72414;BME280;60995;52.154;4.498;2023-05-19T05:06:38;102734.06;;;12.24;68.73
72414;BME280;60995;52.154;4.498;2023-05-19T05:08:57;102729.25;;;12.43;68.44
72414;BME280;60995;52.154;4.498;2023-05-19T05:11:14;102746.66;;;12.40;67.91
72414;BME280;60995;52.154;4.498;2023-05-19T05:13:31;102742.94;;;12.41;67.89
72414;BME280;60995;52.154;4.498;2023-05-19T05:15:48;102737.44;;;12.83;66.91
72414;BME280;60995;52.154;4.498;2023-05-19T05:18:08;102728.25;;;12.84;65.93
72414;BME280;60995;52.154;4.498;2023-05-19T05:20:25;102735.50;;;13.11;65.41
72414;BME280;60995;52.154;4.498;2023-05-19T05:22:41;102743.78;;;12.96;66.06
72414;BME280;60995;52.154;4.498;2023-05-19T05:24:59;102739.09;;;14.13;64.13
72414;BME280;60995;52.154;4.498;2023-05-19T05:27:16;102733.31;;;14.90;60.55
72414;BME280;60995;52.154;4.498;2023-05-19T05:29:33;102733.34;;;16.26;56.96
72414;BME280;60995;52.154;4.498;2023-05-19T05:31:49;102739.81;;;17.32;53.83
72414;BME280;60995;52.154;4.498;2023-05-19T05:34:06;102730.53;;;18.65;51.04
72414;BME280;60995;52.154;4.498;2023-05-19T05:36:22;102725.31;;;19.96;46.70
72414;BME280;60995;52.154;4.498;2023-05-19T05:38:39;102719.72;;;21.67;41.89
72414;BME280;60995;52.154;4.498;2023-05-19T05:40:55;102724.91;;;21.18;41.79
72414;BME280;60995;52.154;4.498;2023-05-19T05:43:11;102725.97;;;21.25;41.72
72414;BME280;60995;52.154;4.498;2023-05-19T05:45:28;102717.91;;;21.92;40.73
72414;BME280;60995;52.154;4.498;2023-05-19T05:47:44;102714.63;;;22.40;39.13
72414;BME280;60995;52.154;4.498;2023-05-19T05:50:01;102722.41;;;21.93;39.90
72414;BME280;60995;52.154;4.498;2023-05-19T05:52:20;102715.47;;;23.23;37.96
72414;BME280;60995;52.154;4.498;2023-05-19T05:54:37;102712.59;;;23.64;36.16
72414;BME280;60995;52.154;4.498;2023-05-19T05:56:54;102720.59;;;23.51;36.87
72414;BME280;60995;52.154;4.498;2023-05-19T05:59:11;102707.47;;;24.47;34.76
72414;BME280;60995;52.154;4.498;2023-05-19T06:01:28;102715.03;;;23.99;35.55
72414;BME280;60995;52.154;4.498;2023-05-19T06:03:45;102708.91;;;24.11;34.76
72414;BME280;60995;52.154;4.498;2023-05-19T06:06:02;102709.09;;;23.70;35.66
72414;BME280;60995;52.154;4.498;2023-05-19T06:08:19;102703.84;;;24.15;35.57
72414;BME280;60995;52.154;4.498;2023-05-19T06:10:35;102708.25;;;24.09;35.01
72414;BME280;60995;52.154;4.498;2023-05-19T06:12:53;102703.84;;;23.36;35.78
72414;BME280;60995;52.154;4.498;2023-05-19T06:15:10;102707.69;;;23.02;37.33
72414;BME280;60995;52.154;4.498;2023-05-19T06:17:26;102704.03;;;23.82;35.91
72414;BME280;60995;52.154;4.498;2023-05-19T06:19:42;102700.50;;;23.97;35.81
72414;BME280;60995;52.154;4.498;2023-05-19T06:21:59;102704.31;;;23.95;36.10
72414;BME280;60995;52.154;4.498;2023-05-19T06:24:15;102706.31;;;25.41;33.21
72414;BME280;60995;52.154;4.498;2023-05-19T06:26:31;102705.75;;;23.83;36.31
72414;BME280;60995;52.154;4.498;2023-05-19T06:28:48;102712.84;;;23.38;36.23
72414;BME280;60995;52.154;4.498;2023-05-19T06:31:04;102715.13;;;24.91;33.72
72414;BME280;60995;52.154;4.498;2023-05-19T06:33:20;102711.81;;;24.41;34.12
72414;BME280;60995;52.154;4.498;2023-05-19T06:35:37;102705.97;;;24.36;35.41
72414;BME280;60995;52.154;4.498;2023-05-19T06:37:53;102714.94;;;25.08;33.87
72414;BME280;60995;52.154;4.498;2023-05-19T06:40:11;102708.63;;;25.14;33.46
72414;BME280;60995;52.154;4.498;2023-05-19T06:42:28;102707.84;;;25.43;32.80
72414;BME280;60995;52.154;4.498;2023-05-19T06:44:44;102714.94;;;23.27;36.59
72414;BME280;60995;52.154;4.498;2023-05-19T06:47:00;102711.69;;;22.66;38.37
72414;BME280;60995;52.154;4.498;2023-05-19T06:49:17;102706.59;;;24.47;34.97
72414;BME280;60995;52.154;4.498;2023-05-19T06:51:33;102713.63;;;24.81;34.35
72414;BME280;60995;52.154;4.498;2023-05-19T06:53:50;102709.13;;;26.29;32.26
72414;BME280;60995;52.154;4.498;2023-05-19T06:56:07;102711.53;;;27.61;30.00
72414;BME280;60995;52.154;4.498;2023-05-19T06:58:23;102710.84;;;28.96;28.15
72414;BME280;60995;52.154;4.498;2023-05-19T07:00:40;102705.44;;;28.87;27.33
72414;BME280;60995;52.154;4.498;2023-05-19T07:02:56;102707.78;;;29.17;26.61
72414;BME280;60995;52.154;4.498;2023-05-19T07:05:12;102710.16;;;27.92;28.15
72414;BME280;60995;52.154;4.498;2023-05-19T07:07:28;102701.19;;;29.77;25.90
72414;BME280;60995;52.154;4.498;2023-05-19T07:09:47;102709.09;;;26.87;28.77
72414;BME280;60995;52.154;4.498;2023-05-19T07:12:04;102706.94;;;23.41;34.70
72414;BME280;60995;52.154;4.498;2023-05-19T07:14:21;102697.94;;;25.71;31.98
72414;BME280;60995;52.154;4.498;2023-05-19T07:16:38;102693.38;;;28.53;27.52
72414;BME280;60995;52.154;4.498;2023-05-19T07:18:54;102698.09;;;29.40;25.55
72414;BME280;60995;52.154;4.498;2023-05-19T07:21:10;102700.00;;;28.39;27.00
72414;BME280;60995;52.154;4.498;2023-05-19T07:23:27;102710.09;;;27.78;27.14
72414;BME280;60995;52.154;4.498;2023-05-19T07:25:43;102706.94;;;25.88;30.28
72414;BME280;60995;52.154;4.498;2023-05-19T07:27:59;102702.09;;;25.97;30.01
72414;BME280;60995;52.154;4.498;2023-05-19T07:30:16;102694.66;;;28.44;27.26
72414;BME280;60995;52.154;4.498;2023-05-19T07:32:32;102696.97;;;27.30;29.19
72414;BME280;60995;52.154;4.498;2023-05-19T07:34:48;102693.91;;;29.69;25.80
72414;BME280;60995;52.154;4.498;2023-05-19T07:37:04;102689.53;;;28.68;25.92
72414;BME280;60995;52.154;4.498;2023-05-19T07:39:21;102689.72;;;25.99;29.12
72414;BME280;60995;52.154;4.498;2023-05-19T07:41:40;102697.66;;;25.51;30.88
72414;BME280;60995;52.154;4.498;2023-05-19T07:43:56;102690.88;;;29.78;25.16
72414;BME280;60995;52.154;4.498;2023-05-19T07:46:12;102678.00;;;30.98;22.65
72414;BME280;60995;52.154;4.498;2023-05-19T07:48:29;102686.25;;;28.24;24.98
72414;BME280;60995;52.154;4.498;2023-05-19T07:50:45;102684.75;;;28.28;25.26
72414;BME280;60995;52.154;4.498;2023-05-19T07:53:02;102688.00;;;28.52;25.32
72414;BME280;60995;52.154;4.498;2023-05-19T07:55:18;102687.00;;;29.72;24.25
72414;BME280;60995;52.154;4.498;2023-05-19T07:57:37;102683.09;;;26.58;26.81
72414;BME280;60995;52.154;4.498;2023-05-19T07:59:54;102695.19;;;22.31;32.80
72414;BME280;60995;52.154;4.498;2023-05-19T08:02:10;102686.75;;;21.74;34.89
72414;BME280;60995;52.154;4.498;2023-05-19T08:04:26;102690.75;;;22.88;33.23
72414;BME280;60995;52.154;4.498;2023-05-19T08:06:43;102682.72;;;23.43;33.31
72414;BME280;60995;52.154;4.498;2023-05-19T08:09:00;102685.16;;;24.64;29.72
72414;BME280;60995;52.154;4.498;2023-05-19T08:11:16;102681.00;;;25.36;29.74
72414;BME280;60995;52.154;4.498;2023-05-19T08:13:33;102672.09;;;25.92;27.81
72414;BME280;60995;52.154;4.498;2023-05-19T08:15:49;102672.91;;;24.03;31.03
72414;BME280;60995;52.154;4.498;2023-05-19T08:18:06;102667.91;;;24.91;29.22
72414;BME280;60995;52.154;4.498;2023-05-19T08:20:22;102678.84;;;24.23;31.06
72414;BME280;60995;52.154;4.498;2023-05-19T08:22:39;102672.97;;;25.41;28.59
72414;BME280;60995;52.154;4.498;2023-05-19T08:24:55;102679.59;;;24.17;30.17
72414;BME280;60995;52.154;4.498;2023-05-19T08:27:12;102675.88;;;22.56;32.85
72414;BME280;60995;52.154;4.498;2023-05-19T08:29:29;102681.38;;;21.38;35.30
72414;BME280;60995;52.154;4.498;2023-05-19T08:31:45;102683.28;;;22.97;33.29
72414;BME280;60995;52.154;4.498;2023-05-19T08:34:02;102665.97;;;24.77;30.06
72414;BME280;60995;52.154;4.498;2023-05-19T08:36:18;102664.72;;;26.42;27.16
72414;BME280;60995;52.154;4.498;2023-05-19T08:38:36;102660.91;;;28.26;25.76
72414;BME280;60995;52.154;4.498;2023-05-19T08:40:53;102664.19;;;28.90;24.30
72414;BME280;60995;52.154;4.498;2023-05-19T08:43:09;102652.41;;;27.85;24.35
72414;BME280;60995;52.154;4.498;2023-05-19T08:45:26;102656.88;;;28.62;23.99
72414;BME280;60995;52.154;4.498;2023-05-19T08:47:46;102652.09;;;27.53;23.48
72414;BME280;60995;52.154;4.498;2023-05-19T08:50:06;102646.66;;;26.53;26.35
72414;BME280;60995;52.154;4.498;2023-05-19T08:55:18;102656.84;;;26.46;26.28
72414;BME280;60995;52.154;4.498;2023-05-19T08:57:43;102651.16;;;26.33;26.67
72414;BME280;60995;52.154;4.498;2023-05-19T09:00:01;102653.34;;;26.01;26.72
72414;BME280;60995;52.154;4.498;2023-05-19T09:02:24;102644.38;;;25.32;27.53
72414;BME280;60995;52.154;4.498;2023-05-19T09:04:41;102639.75;;;26.06;26.29
72414;BME280;60995;52.154;4.498;2023-05-19T09:07:00;102649.75;;;24.19;27.32
72414;BME280;60995;52.154;4.498;2023-05-19T09:09:18;102650.66;;;24.96;26.98
72414;BME280;60995;52.154;4.498;2023-05-19T09:11:35;102639.03;;;25.82;25.67
72414;BME280;60995;52.154;4.498;2023-05-19T09:13:52;102632.59;;;24.39;27.17
72414;BME280;60995;52.154;4.498;2023-05-19T09:16:09;102638.19;;;25.82;24.95
72414;BME280;60995;52.154;4.498;2023-05-19T09:18:26;102638.56;;;24.74;25.44
72414;BME280;60995;52.154;4.498;2023-05-19T09:20:44;102639.19;;;22.05;28.92
72414;BME280;60995;52.154;4.498;2023-05-19T09:23:01;102640.19;;;24.22;27.19
72414;BME280;60995;52.154;4.498;2023-05-19T09:25:21;102636.69;;;24.05;26.97
72414;BME280;60995;52.154;4.498;2023-05-19T09:27:38;102635.66;;;25.50;25.78
72414;BME280;60995;52.154;4.498;2023-05-19T09:29:54;102636.25;;;26.90;23.91
72414;BME280;60995;52.154;4.498;2023-05-19T09:32:11;102634.09;;;25.63;24.27
72414;BME280;60995;52.154;4.498;2023-05-19T09:34:27;102641.66;;;24.56;25.85
72414;BME280;60995;52.154;4.498;2023-05-19T09:36:45;102651.34;;;23.90;27.29
72414;BME280;60995;52.154;4.498;2023-05-19T09:39:15;102651.56;;;26.30;24.77
72414;BME280;60995;52.154;4.498;2023-05-19T09:41:32;102638.59;;;27.22;23.60
72414;BME280;60995;52.154;4.498;2023-05-19T09:43:54;102639.31;;;27.37;23.00
72414;BME280;60995;52.154;4.498;2023-05-19T09:46:11;102632.59;;;25.15;25.42
72414;BME280;60995;52.154;4.498;2023-05-19T09:48:27;102640.81;;;24.93;25.62
72414;BME280;60995;52.154;4.498;2023-05-19T09:50:44;102630.47;;;25.17;26.00
72414;BME280;60995;52.154;4.498;2023-05-19T09:53:02;102642.16;;;26.31;24.42
72414;BME280;60995;52.154;4.498;2023-05-19T09:55:19;102639.50;;;24.66;25.01
72414;BME280;60995;52.154;4.498;2023-05-19T09:57:38;102636.41;;;25.14;25.56
72414;BME280;60995;52.154;4.498;2023-05-19T09:59:56;102627.06;;;26.18;24.06
72414;BME280;60995;52.154;4.498;2023-05-19T10:02:15;102632.66;;;24.92;24.85
72414;BME280;60995;52.154;4.498;2023-05-19T10:04:36;102632.75;;;25.29;24.19
72414;BME280;60995;52.154;4.498;2023-05-19T10:06:53;102620.78;;;24.83;24.54
72414;BME280;60995;52.154;4.498;2023-05-19T10:09:14;102621.66;;;24.84;24.50
72414;BME280;60995;52.154;4.498;2023-05-19T10:11:32;102630.59;;;24.33;25.67
72414;BME280;60995;52.154;4.498;2023-05-19T10:13:50;102622.63;;;23.43;25.96
72414;BME280;60995;52.154;4.498;2023-05-19T10:16:08;102643.47;;;21.99;27.50
72414;BME280;60995;52.154;4.498;2023-05-19T10:18:25;102632.88;;;21.35;28.09
72414;BME280;60995;52.154;4.498;2023-05-19T10:20:45;102634.00;;;22.10;28.03
72414;BME280;60995;52.154;4.498;2023-05-19T10:23:04;102628.16;;;23.43;26.85
72414;BME280;60995;52.154;4.498;2023-05-19T10:25:20;102626.53;;;24.58;25.84
72414;BME280;60995;52.154;4.498;2023-05-19T10:28:04;102635.75;;;22.93;27.63
72414;BME280;60995;52.154;4.498;2023-05-19T10:30:29;102621.13;;;23.33;25.07
72414;BME280;60995;52.154;4.498;2023-05-19T10:32:52;102625.94;;;24.48;24.76
72414;BME280;60995;52.154;4.498;2023-05-19T10:41:12;102607.22;;;24.27;25.58
72414;BME280;60995;52.154;4.498;2023-05-19T10:43:53;102616.59;;;25.02;24.99
72414;BME280;60995;52.154;4.498;2023-05-19T10:46:32;102608.56;;;23.53;26.60
72414;BME280;60995;52.154;4.498;2023-05-19T10:48:48;102609.81;;;24.28;26.30
72414;BME280;60995;52.154;4.498;2023-05-19T10:51:07;102602.66;;;24.34;25.25
72414;BME280;60995;52.154;4.498;2023-05-19T10:53:31;102597.31;;;24.09;25.46
72414;BME280;60995;52.154;4.498;2023-05-19T10:55:53;102601.03;;;24.40;25.47
72414;BME280;60995;52.154;4.498;2023-05-19T10:58:10;102600.03;;;26.12;24.07
72414;BME280;60995;52.154;4.498;2023-05-19T11:00:29;102591.78;;;25.31;23.84
72414;BME280;60995;52.154;4.498;2023-05-19T11:02:46;102599.56;;;25.72;24.12
72414;BME280;60995;52.154;4.498;2023-05-19T11:05:10;102594.47;;;25.39;24.29
72414;BME280;60995;52.154;4.498;2023-05-19T11:07:32;102598.59;;;26.45;23.00
72414;BME280;60995;52.154;4.498;2023-05-19T11:09:50;102612.09;;;26.19;23.76
72414;BME280;60995;52.154;4.498;2023-05-19T11:12:07;102607.75;;;25.95;23.41
72414;BME280;60995;52.154;4.498;2023-05-19T11:14:26;102604.25;;;26.08;23.27
72414;BME280;60995;52.154;4.498;2023-05-19T11:16:45;102611.41;;;25.14;24.32
72414;BME280;60995;52.154;4.498;2023-05-19T11:19:04;102599.00;;;25.62;24.45
72414;BME280;60995;52.154;4.498;2023-05-19T11:21:21;102599.63;;;25.57;24.54
72414;BME280;60995;52.154;4.498;2023-05-19T11:23:40;102591.50;;;25.25;25.30
72414;BME280;60995;52.154;4.498;2023-05-19T11:25:56;102587.81;;;24.65;26.23
72414;BME280;60995;52.154;4.498;2023-05-19T11:28:18;102594.16;;;25.34;25.19
72414;BME280;60995;52.154;4.498;2023-05-19T11:30:41;102594.97;;;24.21;26.75
72414;BME280;60995;52.154;4.498;2023-05-19T11:32:59;102606.53;;;24.86;25.66
72414;BME280;60995;52.154;4.498;2023-05-19T11:35:16;102593.47;;;25.32;25.12
72414;BME280;60995;52.154;4.498;2023-05-19T11:37:35;102593.69;;;25.00;25.81
72414;BME280;60995;52.154;4.498;2023-05-19T11:39:52;102590.34;;;25.05;25.57
72414;BME280;60995;52.154;4.498;2023-05-19T11:42:08;102593.34;;;25.91;23.57
72414;BME280;60995;52.154;4.498;2023-05-19T11:44:33;102589.19;;;24.69;25.39
72414;BME280;60995;52.154;4.498;2023-05-19T11:46:49;102591.97;;;25.14;24.39
72414;BME280;60995;52.154;4.498;2023-05-19T11:49:06;102586.00;;;23.25;26.10
72414;BME280;60995;52.154;4.498;2023-05-19T11:51:25;102576.69;;;24.12;25.44
72414;BME280;60995;52.154;4.498;2023-05-19T11:53:48;102596.41;;;23.54;26.21
72414;BME280;60995;52.154;4.498;2023-05-19T11:56:05;102585.31;;;23.62;26.39
72414;BME280;60995;52.154;4.498;2023-05-19T11:58:25;102580.78;;;24.54;25.25
72414;BME280;60995;52.154;4.498;2023-05-19T12:00:43;102579.03;;;25.36;24.93
72414;BME280;60995;52.154;4.498;2023-05-19T12:03:03;102586.97;;;24.03;26.15
72414;BME280;60995;52.154;4.498;2023-05-19T12:05:25;102592.22;;;22.54;28.59
72414;BME280;60995;52.154;4.498;2023-05-19T12:07:42;102581.13;;;22.62;28.73
72414;BME280;60995;52.154;4.498;2023-05-19T12:09:59;102573.34;;;23.31;27.11
72414;BME280;60995;52.154;4.498;2023-05-19T12:12:20;102571.53;;;23.06;27.03
72414;BME280;60995;52.154;4.498;2023-05-19T12:14:40;102571.75;;;22.80;27.49
72414;BME280;60995;52.154;4.498;2023-05-19T12:16:56;102566.31;;;23.03;27.09
72414;BME280;60995;52.154;4.498;2023-05-19T12:19:13;102561.41;;;23.61;26.93